Time;durP1;ratioP1;P1;durP2;ratioP2;P2;SDS_P1;SDS_P2;PMS_P1;PMS_P2;Temp;Humidity;BMP_temperature;BMP_pressure;BME280_temperature;BME280_humidity;BME280_pressure;Samples;Min_cycle;Max_cycle;Signal;HPM_P1;HPM_P2
2023/04/07 00:01:53;;;;;;;50.20;31.90;;;;;;;4.64;85.51;100478.29;180869;1261;58152;-83
2023/04/07 00:05:56;;;;;;;55.80;36.10;;;;;;;4.54;86.56;100470.74;180714;1262;44151;-83
2023/04/07 00:09:59;;;;;;;54.20;33.50;;;;;;;4.43;88.09;100467.99;180747;1262;43952;-82
2023/04/07 00:14:02;;;;;;;51.50;33.00;;;;;;;4.37;88.84;100467.61;180726;1262;44023;-83
2023/04/07 00:18:05;;;;;;;57.90;35.50;;;;;;;4.29;89.37;100465.02;180783;1261;43753;-82
2023/04/07 00:22:09;;;;;;;77.20;41.90;;;;;;;4.28;88.89;100465.58;180812;1261;59432;-83
2023/04/07 00:26:12;;;;;;;51.20;34.20;;;;;;;4.34;88.21;100464.23;180680;1261;44059;-82
2023/04/07 00:30:16;;;;;;;62.50;37.20;;;;;;;4.39;87.48;100464.98;180703;1262;44065;-83
2023/04/07 00:34:19;;;;;;;61.20;37.30;;;;;;;4.48;86.73;100462.44;180852;1262;43998;-82
2023/04/07 00:38:22;;;;;;;68.40;40.40;;;;;;;4.55;86.75;100460.16;180832;1261;43812;-83
2023/04/07 00:42:25;;;;;;;63.80;39.90;;;;;;;4.62;87.17;100458.17;180770;1261;58076;-84
2023/04/07 00:46:29;;;;;;;61.90;39.00;;;;;;;4.68;87.17;100458.91;180750;1262;44012;-84
2023/04/07 00:50:32;;;;;;;49.70;32.80;;;;;;;4.76;87.47;100455.15;180765;1261;44031;-84
2023/04/07 00:54:35;;;;;;;60.00;39.00;;;;;;;4.83;87.85;100451.77;180801;1262;44135;-83
2023/04/07 00:58:38;;;;;;;51.00;33.80;;;;;;;4.81;86.97;100447.66;180869;1261;44151;-83
2023/04/07 01:02:47;;;;;;;56.40;36.10;;;;;;;4.74;87.31;100446.61;180730;1262;57986;-83
2023/04/07 01:06:56;;;;;;;56.90;34.80;;;;;;;4.77;87.03;100444.03;180775;1261;43855;-83
2023/04/07 01:11:02;;;;;;;66.90;39.90;;;;;;;4.82;86.46;100439.02;180577;1262;44492;-83
2023/04/07 01:15:11;;;;;;;59.20;39.50;;;;;;;4.82;86.79;100433.92;180915;1262;43770;-81
2023/04/07 01:19:35;;;;;;;56.00;38.70;;;;;;;4.83;87.64;100433.35;180781;1262;43764;-80
2023/04/07 01:23:51;;;;;;;74.50;44.00;;;;;;;4.89;87.78;100431.40;180709;1261;57774;-83
2023/04/07 01:28:12;;;;;;;66.00;44.00;;;;;;;5.06;87.94;100429.77;180787;1261;43893;-83
2023/04/07 01:32:19;;;;;;;60.80;42.70;;;;;;;5.12;88.25;100429.45;180897;1262;44117;-84
2023/04/07 01:36:23;;;;;;;58.40;37.90;;;;;;;5.14;87.51;100427.55;180859;1261;44092;-84
2023/04/07 01:40:28;;;;;;;57.40;39.90;;;;;;;5.12;87.93;100429.11;180810;1261;44115;-84
2023/04/07 01:44:31;;;;;;;55.00;36.60;;;;;;;5.14;87.75;100426.14;180778;1261;62588;-84
2023/04/07 01:48:35;;;;;;;55.60;36.70;;;;;;;5.05;88.66;100426.34;180684;1261;44074;-84
2023/04/07 01:52:39;;;;;;;49.40;32.20;;;;;;;4.95;87.20;100423.52;180928;1261;43745;-83
2023/04/07 01:56:43;;;;;;;47.80;33.70;;;;;;;4.95;86.50;100415.63;180724;1262;44249;-84
2023/04/07 02:00:47;;;;;;;54.20;34.70;;;;;;;5.02;86.69;100412.75;180771;1261;43944;-84
2023/04/07 02:04:55;;;;;;;57.00;37.70;;;;;;;5.08;86.70;100413.86;180698;1262;59228;-83
2023/04/07 02:09:05;;;;;;;51.20;33.70;;;;;;;5.11;87.67;100409.98;180889;1262;44177;-82
2023/04/07 02:13:12;;;;;;;51.00;33.50;;;;;;;5.11;88.42;100408.77;180793;1261;44127;-83
2023/04/07 02:17:15;;;;;;;52.40;33.70;;;;;;;5.12;88.06;100408.55;180835;1262;43979;-83
2023/04/07 02:21:20;;;;;;;46.20;31.00;;;;;;;5.09;84.57;100408.17;180665;1261;43860;-83
2023/04/07 02:25:27;;;;;;;44.80;30.90;;;;;;;5.07;85.15;100406.71;180743;1262;58094;-84
2023/04/07 02:29:30;;;;;;;34.80;25.00;;;;;;;5.03;85.93;100399.89;180882;1261;44068;-83
2023/04/07 02:33:33;;;;;;;37.90;26.50;;;;;;;4.96;85.83;100393.77;180792;1261;44045;-83
2023/04/07 02:37:36;;;;;;;43.60;28.50;;;;;;;4.97;86.46;100393.89;180885;1262;44082;-83
2023/04/07 02:41:39;;;;;;;52.60;29.80;;;;;;;4.93;84.36;100391.27;180716;1262;43762;-83
2023/04/07 02:45:42;;;;;;;42.90;31.00;;;;;;;4.81;86.05;100389.49;180716;1262;59837;-83
2023/04/07 02:49:45;;;;;;;39.00;26.90;;;;;;;4.82;84.92;100384.55;180711;1261;43801;-83
2023/04/07 02:53:48;;;;;;;46.00;29.40;;;;;;;4.83;85.54;100384.33;180764;1261;44165;-83
2023/04/07 02:57:51;;;;;;;41.00;29.30;;;;;;;4.90;86.09;100386.55;180629;1262;43997;-84
2023/04/07 03:01:54;;;;;;;37.30;27.00;;;;;;;4.92;84.94;100381.54;180785;1261;44165;-85
2023/04/07 03:05:58;;;;;;;40.20;29.90;;;;;;;4.91;84.63;100381.55;180889;1262;59438;-83
2023/04/07 03:10:01;;;;;;;44.00;30.10;;;;;;;4.87;83.68;100377.25;180921;1261;44069;-83
2023/04/07 03:14:04;;;;;;;42.10;29.80;;;;;;;4.82;83.87;100375.21;180733;1261;43807;-84
2023/04/07 03:18:07;;;;;;;43.70;29.10;;;;;;;4.74;83.81;100374.60;180723;1261;44136;-86
2023/04/07 03:22:10;;;;;;;48.10;31.50;;;;;;;4.68;84.07;100377.20;180837;1262;44038;-87
2023/04/07 03:26:13;;;;;;;38.00;28.50;;;;;;;4.69;84.49;100372.41;180909;1262;58258;-86
2023/04/07 03:30:16;;;;;;;39.90;26.20;;;;;;;4.67;84.10;100372.52;180704;1261;43969;-86
2023/04/07 03:34:19;;;;;;;35.10;26.90;;;;;;;4.61;84.19;100375.32;180752;1262;44067;-87
2023/04/07 03:38:22;;;;;;;34.60;26.10;;;;;;;4.63;84.93;100378.39;180874;1261;43734;-87
2023/04/07 03:42:25;;;;;;;32.90;27.50;;;;;;;4.68;85.30;100380.55;180799;1261;44455;-86
2023/04/07 03:46:29;;;;;;;37.20;27.00;;;;;;;4.70;85.98;100380.07;180779;1261;60224;-86
2023/04/07 03:50:33;;;;;;;32.30;25.30;;;;;;;4.73;85.49;100381.70;180834;1262;43895;-87
2023/04/07 03:54:36;;;;;;;39.10;27.80;;;;;;;4.70;85.97;100375.34;180909;1261;43765;-87
2023/04/07 03:58:41;;;;;;;41.00;24.40;;;;;;;4.64;86.93;100373.02;180846;1262;43781;-88
2023/04/07 04:02:44;;;;;;;39.10;28.00;;;;;;;4.55;90.60;100371.23;180841;1261;43788;-87
2023/04/07 04:06:48;;;;;;;32.30;26.20;;;;;;;4.38;91.96;100373.76;180831;1263;59254;-88
2023/04/07 04:10:51;;;;;;;33.70;25.00;;;;;;;4.31;91.46;100372.20;180854;1261;44106;-87
2023/04/07 04:14:55;;;;;;;49.40;29.40;;;;;;;4.36;89.07;100371.22;180989;1262;44095;-87
2023/04/07 04:18:58;;;;;;;41.90;27.80;;;;;;;4.40;86.73;100375.59;180882;1262;43770;-88
2023/04/07 04:23:02;;;;;;;34.60;26.50;;;;;;;4.43;86.74;100374.55;180835;1261;43939;-86
2023/04/07 04:27:05;;;;;;;49.20;29.00;;;;;;;4.45;86.43;100381.66;180866;1261;57916;-86
2023/04/07 04:31:08;;;;;;;42.30;28.80;;;;;;;4.49;86.80;100378.63;180722;1261;44245;-87
2023/04/07 04:35:11;;;;;;;42.40;25.70;;;;;;;4.52;87.25;100378.43;180801;1261;43820;-87
2023/04/07 04:39:14;;;;;;;41.80;27.40;;;;;;;4.52;89.41;100379.68;180921;1261;43900;-87
2023/04/07 04:43:18;;;;;;;43.30;30.10;;;;;;;4.54;90.18;100377.14;180884;1261;44012;-88
2023/04/07 04:47:22;;;;;;;44.50;27.80;;;;;;;4.48;92.29;100380.98;180832;1261;57924;-87
2023/04/07 04:51:26;;;;;;;41.70;26.40;;;;;;;4.47;91.66;100383.81;180821;1262;44193;-87
2023/04/07 04:55:30;;;;;;;41.60;28.00;;;;;;;4.55;91.57;100378.63;180791;1262;43855;-88
2023/04/07 04:59:33;;;;;;;39.90;29.60;;;;;;;4.62;92.51;100381.59;180816;1262;44009;-87
2023/04/07 05:03:37;;;;;;;36.50;27.40;;;;;;;4.63;93.77;100378.02;180757;1261;43760;-87
2023/04/07 05:07:42;;;;;;;35.00;26.10;;;;;;;4.58;93.80;100376.04;180970;1262;60009;-87
2023/04/07 05:11:45;;;;;;;37.80;26.80;;;;;;;4.58;94.30;100375.48;180868;1265;44118;-88
2023/04/07 05:15:50;;;;;;;36.20;24.80;;;;;;;4.61;93.70;100372.36;180820;1262;43643;-87
2023/04/07 05:19:53;;;;;;;38.10;25.00;;;;;;;4.53;93.55;100374.55;180985;1262;43726;-88
2023/04/07 05:23:56;;;;;;;42.50;28.70;;;;;;;4.39;94.08;100374.90;180872;1262;43962;-88
2023/04/07 05:27:59;;;;;;;37.90;23.90;;;;;;;4.33;93.78;100375.98;180716;1262;59370;-88
2023/04/07 05:32:05;;;;;;;46.40;27.40;;;;;;;4.24;93.72;100376.45;180846;1261;43773;-86
2023/04/07 05:36:08;;;;;;;42.90;24.10;;;;;;;4.22;93.34;100384.11;180765;1262;44101;-87
2023/04/07 05:40:12;;;;;;;41.30;28.60;;;;;;;4.23;93.80;100385.27;180979;1262;44006;-87
2023/04/07 05:44:16;;;;;;;44.80;28.10;;;;;;;4.29;94.75;100388.48;180845;1262;44110;-87
2023/04/07 05:48:19;;;;;;;43.20;25.00;;;;;;;4.36;94.93;100390.91;180821;1263;59590;-87
2023/04/07 05:52:22;;;;;;;36.10;25.00;;;;;;;4.37;95.46;100394.02;180827;1261;44137;-87
2023/04/07 05:56:25;;;;;;;38.50;24.90;;;;;;;4.35;94.31;100392.54;181035;1262;44038;-87
2023/04/07 06:00:29;;;;;;;38.80;24.00;;;;;;;4.33;94.97;100391.42;180765;1261;43761;-87
2023/04/07 06:04:34;;;;;;;32.10;20.90;;;;;;;4.34;95.79;100387.33;180848;1261;43774;-87
2023/04/07 06:08:37;;;;;;;37.50;24.10;;;;;;;4.32;95.12;100387.94;180800;1262;56949;-87
2023/04/07 06:12:40;;;;;;;31.00;20.40;;;;;;;4.31;95.60;100386.41;180779;1262;43731;-87
2023/04/07 06:16:43;;;;;;;37.20;24.90;;;;;;;4.30;97.30;100387.36;180860;1263;44250;-87
2023/04/07 06:20:47;;;;;;;38.60;25.20;;;;;;;4.33;96.48;100387.73;180716;1261;43898;-87
2023/04/07 06:24:50;;;;;;;36.10;24.30;;;;;;;4.30;97.61;100387.20;180943;1262;44075;-87
2023/04/07 06:28:53;;;;;;;28.20;20.10;;;;;;;4.36;98.50;100379.82;180823;1263;59242;-87
2023/04/07 06:32:56;;;;;;;26.00;20.30;;;;;;;4.36;97.48;100381.63;180644;1262;43848;-87
2023/04/07 06:37:00;;;;;;;32.30;20.70;;;;;;;4.43;97.87;100379.14;180806;1262;43994;-87
2023/04/07 06:41:03;;;;;;;25.90;19.80;;;;;;;4.51;97.02;100382.91;180999;1263;43884;-87
2023/04/07 06:45:07;;;;;;;37.40;24.30;;;;;;;4.59;97.68;100386.34;180964;1261;43832;-87
2023/04/07 06:49:11;;;;;;;35.60;21.60;;;;;;;4.71;97.86;100384.45;180738;1261;58155;-87
2023/04/07 06:53:15;;;;;;;29.00;20.50;;;;;;;4.64;97.29;100380.64;180728;1263;44719;-87
2023/04/07 06:57:19;;;;;;;31.70;21.60;;;;;;;4.60;95.90;100372.91;180798;1264;43962;-87
2023/04/07 07:01:23;;;;;;;29.20;19.00;;;;;;;4.59;96.78;100377.01;180947;1262;44150;-87
2023/04/07 07:05:26;;;;;;;37.20;21.00;;;;;;;4.66;97.38;100380.14;180835;1263;43733;-87
2023/04/07 07:09:29;;;;;;;32.30;21.00;;;;;;;4.68;97.42;100384.45;180729;1263;58462;-87
2023/04/07 07:13:32;;;;;;;23.10;20.10;;;;;;;4.77;96.33;100378.48;180946;1264;43810;-87
2023/04/07 07:17:35;;;;;;;30.90;22.30;;;;;;;4.80;96.69;100382.88;180879;1263;44044;-87
2023/04/07 07:21:39;;;;;;;28.90;20.80;;;;;;;4.73;96.61;100385.55;180834;1263;43819;-86
2023/04/07 07:25:42;;;;;;;31.60;21.40;;;;;;;4.78;97.19;100387.76;180867;1264;43811;-87
2023/04/07 07:29:45;;;;;;;29.90;21.90;;;;;;;4.85;97.44;100392.83;180840;1263;58342;-87
2023/04/07 07:33:50;;;;;;;38.10;23.10;;;;;;;4.98;96.48;100394.50;180863;1261;43978;-87
2023/04/07 07:37:53;;;;;;;37.50;25.20;;;;;;;5.01;95.43;100395.40;180919;1263;43825;-87
2023/04/07 07:41:56;;;;;;;40.70;23.60;;;;;;;4.99;93.78;100390.78;180827;1265;47303;-88
2023/04/07 07:46:00;;;;;;;36.80;25.30;;;;;;;4.99;94.26;100396.77;180759;1263;43807;-87
2023/04/07 07:50:04;;;;;;;35.30;27.10;;;;;;;4.97;94.11;100396.88;181021;1262;59297;-87
2023/04/07 07:54:08;;;;;;;53.90;22.00;;;;;;;5.05;93.26;100398.16;180751;1262;44180;-88
2023/04/07 07:58:11;;;;;;;38.90;25.60;;;;;;;5.03;93.06;100399.69;180795;1264;43798;-87
2023/04/07 08:02:15;;;;;;;38.40;28.60;;;;;;;5.08;93.21;100396.27;180740;1262;44019;-87
2023/04/07 08:06:18;;;;;;;37.00;24.40;;;;;;;5.01;94.28;100396.80;180243;1262;689672;-87
2023/04/07 08:10:23;;;;;;;30.20;22.20;;;;;;;5.11;94.14;100396.64;180795;1264;59285;-88
2023/04/07 08:14:27;;;;;;;43.20;30.40;;;;;;;5.29;92.95;100398.23;180868;1264;47198;-87
2023/04/07 08:18:31;;;;;;;40.60;27.40;;;;;;;5.37;91.93;100396.03;180775;1262;43764;-87
2023/04/07 08:22:34;;;;;;;38.80;25.00;;;;;;;5.42;90.19;100404.15;181021;1262;44085;-88
2023/04/07 08:26:39;;;;;;;39.40;26.90;;;;;;;5.54;91.73;100399.10;180651;1264;44138;-87
2023/04/07 08:30:42;;;;;;;41.80;26.70;;;;;;;5.62;89.98;100402.45;180910;1262;58562;-88
2023/04/07 08:34:46;;;;;;;41.00;25.50;;;;;;;5.72;91.24;100404.52;180774;1263;43791;-88
2023/04/07 08:38:50;;;;;;;43.00;24.70;;;;;;;5.71;91.18;100402.47;180913;1262;44002;-87
2023/04/07 08:42:53;;;;;;;41.10;28.30;;;;;;;5.74;90.28;100402.84;180848;1263;44151;-87
2023/04/07 08:47:00;;;;;;;42.00;26.80;;;;;;;5.79;89.48;100402.57;180762;1263;43931;-87
2023/04/07 08:51:06;;;;;;;37.40;25.20;;;;;;;5.77;88.63;100404.40;180827;1264;58172;-87
2023/04/07 08:55:10;;;;;;;;;;;;;;;5.69;89.48;100405.39;180868;1262;45561;-87
2023/04/07 08:59:17;;;;;;;40.20;27.30;;;;;;;5.60;89.42;100405.43;180772;1262;43591;-87
2023/04/07 09:03:21;;;;;;;37.20;27.10;;;;;;;5.50;91.00;100403.86;180977;1263;43944;-86
2023/04/07 09:07:25;;;;;;;39.70;27.80;;;;;;;5.48;91.11;100408.56;180797;1261;43920;-87
2023/04/07 09:11:29;;;;;;;37.90;26.40;;;;;;;5.55;90.94;100409.19;181007;1264;58648;-86
2023/04/07 09:15:33;;;;;;;41.90;28.70;;;;;;;5.62;90.52;100405.30;180686;1263;44171;-87
2023/04/07 09:19:40;;;;;;;45.50;29.50;;;;;;;5.72;91.88;100408.77;180909;1264;43950;-87
2023/04/07 09:23:43;;;;;;;33.90;23.60;;;;;;;5.68;91.92;100407.59;180719;1263;48934;-87
2023/04/07 09:28:03;;;;;;;48.30;26.20;;;;;;;5.60;92.65;100406.31;180738;1263;43822;-87
2023/04/07 09:32:06;;;;;;;48.80;30.00;;;;;;;5.40;92.70;100399.71;180894;1262;58526;-87
2023/04/07 09:36:11;;;;;;;47.50;29.70;;;;;;;5.33;94.31;100400.27;180727;1262;44171;-87
2023/04/07 09:40:26;;;;;;;42.00;30.10;;;;;;;5.33;95.73;100396.75;180717;1263;44214;-87
2023/04/07 09:44:39;;;;;;;46.90;29.00;;;;;;;5.33;95.58;100395.69;180673;1263;44058;-88
2023/04/07 09:48:44;;;;;;;48.80;32.50;;;;;;;5.33;94.54;100395.88;180906;1262;44107;-87
2023/04/07 09:52:52;;;;;;;44.40;28.10;;;;;;;5.43;96.15;100390.21;180793;1262;59234;-87
2023/04/07 09:56:56;;;;;;;38.40;24.20;;;;;;;5.54;95.81;100391.70;180813;1262;44026;-87
2023/04/07 10:01:00;;;;;;;22.90;19.40;;;;;;;5.59;94.60;100396.30;180933;1262;43799;-87
2023/04/07 10:05:03;;;;;;;30.80;19.20;;;;;;;5.56;94.19;100395.60;180836;1262;44197;-87
2023/04/07 10:09:07;;;;;;;27.70;15.20;;;;;;;5.42;94.26;100393.98;180886;1261;44229;-87
2023/04/07 10:13:11;;;;;;;28.00;17.60;;;;;;;5.36;94.71;100394.34;180836;1261;59492;-87
2023/04/07 10:17:18;;;;;;;29.90;17.70;;;;;;;5.38;96.23;100395.46;180770;1262;43852;-87
2023/04/07 10:21:22;;;;;;;20.20;14.20;;;;;;;5.47;96.65;100396.49;180733;1261;44174;-87
2023/04/07 10:25:25;;;;;;;20.40;17.40;;;;;;;5.53;94.71;100398.27;180861;1262;43786;-87
2023/04/07 10:29:33;;;;;;;21.60;15.40;;;;;;;5.56;95.40;100400.21;181001;1261;43825;-87
2023/04/07 10:33:45;;;;;;;20.00;13.60;;;;;;;5.62;94.89;100397.02;180710;1263;59276;-87
2023/04/07 10:38:15;;;;;;;19.10;14.30;;;;;;;5.57;94.40;100397.85;180949;1262;44322;-87
2023/04/07 10:42:36;;;;;;;16.80;12.20;;;;;;;5.58;94.29;100394.27;180917;1262;44022;-87
2023/04/07 10:46:48;;;;;;;21.30;15.20;;;;;;;5.59;94.97;100390.52;180906;1262;44305;-87
2023/04/07 10:51:03;;;;;;;23.80;14.70;;;;;;;5.60;95.50;100397.48;181037;1262;43899;-87
2023/04/07 10:55:31;;;;;;;19.90;15.00;;;;;;;5.69;95.17;100401.02;180967;1262;58187;-87
2023/04/07 10:59:35;;;;;;;26.10;15.00;;;;;;;5.77;95.65;100398.08;180829;1262;43877;-87
2023/04/07 11:03:41;;;;;;;21.20;14.60;;;;;;;5.88;95.74;100397.95;180939;1262;44062;-87
2023/04/07 11:07:48;;;;;;;20.60;14.50;;;;;;;5.86;94.08;100397.36;180717;1262;43825;-87
2023/04/07 11:11:52;;;;;;;27.40;17.40;;;;;;;5.74;94.32;100400.34;180699;1262;44058;-87
2023/04/07 11:15:55;;;;;;;23.70;16.50;;;;;;;5.65;95.63;100398.79;180656;1262;59583;-87
2023/04/07 11:19:58;;;;;;;21.20;14.00;;;;;;;5.69;95.09;100395.73;180749;1261;44279;-87
2023/04/07 11:24:01;;;;;;;24.70;16.30;;;;;;;5.70;96.49;100396.52;180811;1262;43982;-87
2023/04/07 11:28:05;;;;;;;20.10;14.90;;;;;;;5.81;97.66;100390.80;180640;1262;44120;-87
2023/04/07 11:32:08;;;;;;;21.50;15.00;;;;;;;5.82;96.95;100390.18;180718;1262;43882;-87
2023/04/07 11:36:11;;;;;;;23.30;15.50;;;;;;;5.59;96.35;100392.08;180805;1262;59327;-87
2023/04/07 11:40:34;;;;;;;17.30;14.70;;;;;;;5.56;97.85;100386.61;180853;1261;43767;-87
2023/04/07 11:44:46;;;;;;;19.80;14.10;;;;;;;5.51;98.13;100385.85;181036;1262;44064;-86
2023/04/07 11:48:50;;;;;;;19.40;14.40;;;;;;;5.55;99.46;100386.86;180792;1262;44050;-87
2023/04/07 11:52:53;;;;;;;25.90;19.50;;;;;;;5.57;99.10;100386.77;180726;1262;43756;-86
2023/04/07 11:56:57;;;;;;;23.40;15.80;;;;;;;5.64;99.91;100383.36;180738;1262;57540;-87
2023/04/07 12:01:07;;;;;;;27.50;18.30;;;;;;;5.70;100.00;100387.76;180822;1262;44214;-88
2023/04/07 12:05:13;;;;;;;23.90;17.10;;;;;;;5.82;99.67;100386.36;180778;1262;43791;-88
2023/04/07 12:09:26;;;;;;;26.40;17.30;;;;;;;5.75;99.64;100389.22;180869;1262;43787;-88
2023/04/07 12:13:31;;;;;;;23.80;17.70;;;;;;;5.69;99.92;100389.73;180751;1262;44147;-88
2023/04/07 12:17:34;;;;;;;38.70;21.70;;;;;;;5.72;99.95;100391.01;180921;1261;59338;-88
2023/04/07 12:21:38;;;;;;;29.90;21.00;;;;;;;5.72;99.87;100389.08;180881;1261;43911;-88
2023/04/07 12:25:41;;;;;;;28.20;18.70;;;;;;;5.76;99.79;100390.05;180672;1261;44419;-88
2023/04/07 12:29:45;;;;;;;32.50;19.40;;;;;;;5.81;100.00;100390.25;180798;1262;43888;-89
2023/04/07 12:33:49;;;;;;;24.20;17.30;;;;;;;5.87;100.00;100387.27;180657;1262;44288;-89
2023/04/07 12:37:53;;;;;;;28.70;18.10;;;;;;;5.84;99.97;100385.88;180785;1261;58337;-88
2023/04/07 12:41:57;;;;;;;22.10;13.90;;;;;;;5.71;99.46;100386.31;180653;1262;44247;-88
2023/04/07 12:46:00;;;;;;;31.40;17.60;;;;;;;5.66;99.85;100384.11;180789;1262;43764;-88
2023/04/07 12:50:03;;;;;;;25.80;18.20;;;;;;;5.76;100.00;100385.98;180581;1262;43952;-87
2023/04/07 12:54:07;;;;;;;22.60;17.30;;;;;;;5.84;99.98;100385.16;180827;1262;43848;-87
2023/04/07 12:58:10;;;;;;;28.30;17.80;;;;;;;5.96;99.90;100379.00;180662;1262;59569;-87
2023/04/07 13:02:16;;;;;;;19.80;16.90;;;;;;;5.93;99.73;100380.95;180812;1261;44142;-87
2023/04/07 13:06:21;;;;;;;24.80;16.40;;;;;;;5.97;100.00;100381.21;180725;1262;44013;-87
2023/04/07 13:10:24;;;;;;;23.90;17.50;;;;;;;6.01;99.74;100376.25;180703;1261;43828;-87
2023/04/07 13:14:27;;;;;;;24.40;15.60;;;;;;;5.98;99.81;100374.64;180751;1262;43903;-86
2023/04/07 13:18:30;;;;;;;24.80;16.20;;;;;;;5.87;100.00;100370.89;180859;1261;58671;-87
2023/04/07 13:22:33;;;;;;;23.20;17.00;;;;;;;5.86;100.00;100373.45;180744;1262;43785;-85
2023/04/07 13:26:38;;;;;;;25.60;17.30;;;;;;;5.83;100.00;100370.40;180883;1262;43732;-87
2023/04/07 13:30:41;;;;;;;26.50;18.20;;;;;;;5.84;100.00;100369.30;180753;1262;44288;-88
2023/04/07 13:34:45;;;;;;;25.20;17.30;;;;;;;5.79;100.00;100370.34;180829;1261;43797;-87
2023/04/07 13:38:48;;;;;;;31.10;17.20;;;;;;;5.89;100.00;100368.13;180709;1262;58341;-87
2023/04/07 13:42:52;;;;;;;19.70;13.70;;;;;;;5.94;100.00;100363.30;180707;1262;44237;-87
2023/04/07 13:46:56;;;;;;;22.20;16.90;;;;;;;5.83;100.00;100367.06;180808;1261;43886;-87
2023/04/07 13:50:59;;;;;;;23.10;14.40;;;;;;;5.82;100.00;100363.79;180666;1262;43973;-88
2023/04/07 13:55:04;;;;;;;35.30;21.70;;;;;;;5.88;100.00;100362.91;180803;1261;44256;-87
2023/04/07 13:59:08;;;;;;;19.80;16.40;;;;;;;5.96;100.00;100359.31;180941;1262;57929;-89
2023/04/07 14:03:11;;;;;;;31.50;17.50;;;;;;;6.08;100.00;100356.81;180800;1260;44145;-89
2023/04/07 14:07:15;;;;;;;17.40;13.50;;;;;;;6.04;100.00;100359.20;180861;1262;43896;-88
2023/04/07 14:11:19;;;;;;;24.50;14.40;;;;;;;5.93;100.00;100356.30;180842;1260;43880;-88
2023/04/07 14:15:22;;;;;;;18.00;12.60;;;;;;;5.93;100.00;100356.13;180728;1261;43745;-89
2023/04/07 14:19:26;;;;;;;16.20;11.60;;;;;;;5.94;100.00;100355.92;180804;1261;59276;-86
2023/04/07 14:23:30;;;;;;;18.20;15.00;;;;;;;5.83;100.00;100355.45;180683;1262;43991;-84
2023/04/07 14:27:40;;;;;;;13.10;9.10;;;;;;;5.77;100.00;100353.74;180746;1260;44475;-87
2023/04/07 14:31:44;;;;;;;15.80;11.60;;;;;;;5.82;100.00;100353.59;180647;1260;43978;-86
2023/04/07 14:35:48;;;;;;;15.10;10.60;;;;;;;5.79;100.00;100355.38;180808;1261;43920;-86
2023/04/07 14:39:52;;;;;;;18.20;11.90;;;;;;;5.80;100.00;100361.16;180600;1262;59004;-87
2023/04/07 14:44:05;;;;;;;14.50;10.70;;;;;;;5.71;100.00;100361.11;180619;1262;44054;-86
2023/04/07 14:48:08;;;;;;;13.60;10.00;;;;;;;5.73;100.00;100359.98;180883;1260;43815;-86
2023/04/07 14:52:12;;;;;;;10.40;9.00;;;;;;;5.75;100.00;100361.23;180733;1260;43841;-87
2023/04/07 14:56:16;;;;;;;15.30;10.40;;;;;;;5.81;100.00;100361.20;180938;1261;44068;-87
2023/04/07 15:00:20;;;;;;;14.20;11.20;;;;;;;5.85;100.00;100359.06;180911;1260;58945;-88
2023/04/07 15:04:24;;;;;;;11.20;9.90;;;;;;;5.87;100.00;100358.61;180756;1261;43888;-87
2023/04/07 15:08:28;;;;;;;14.20;11.40;;;;;;;6.00;100.00;100358.67;180711;1262;44179;-85
2023/04/07 15:12:32;;;;;;;16.70;8.70;;;;;;;5.96;100.00;100363.17;180897;1260;44196;-88
2023/04/07 15:16:35;;;;;;;14.40;10.60;;;;;;;5.97;100.00;100365.34;180611;1261;47664;-87
2023/04/07 15:20:40;;;;;;;13.90;10.90;;;;;;;5.87;100.00;100369.47;180814;1260;59619;-86
2023/04/07 15:24:43;;;;;;;21.00;13.10;;;;;;;5.89;100.00;100364.10;180597;1260;43907;-85
2023/04/07 15:28:47;;;;;;;21.80;12.00;;;;;;;5.91;100.00;100365.56;180653;1262;44237;-89
2023/04/07 15:33:03;;;;;;;15.10;9.90;;;;;;;5.90;100.00;100361.77;180730;1262;44308;-86
2023/04/07 15:37:07;;;;;;;15.60;11.50;;;;;;;5.85;100.00;100362.04;180779;1262;44005;-86
2023/04/07 15:41:14;;;;;;;16.20;11.30;;;;;;;5.77;100.00;100364.66;180782;1262;57921;-86
2023/04/07 15:45:17;;;;;;;21.00;16.10;;;;;;;5.73;100.00;100361.50;180645;1262;44217;-87
2023/04/07 15:49:21;;;;;;;14.70;13.10;;;;;;;5.81;100.00;100364.39;180751;1262;44234;-87
2023/04/07 15:53:28;;;;;;;15.20;11.00;;;;;;;5.78;100.00;100367.55;180697;1261;44014;-85
2023/04/07 15:57:31;;;;;;;13.80;10.10;;;;;;;5.79;100.00;100365.73;180908;1262;43690;-85
2023/04/07 16:01:36;;;;;;;14.70;11.40;;;;;;;5.73;100.00;100367.86;180920;1262;59305;-86
2023/04/07 16:05:39;;;;;;;17.80;12.80;;;;;;;5.79;100.00;100374.02;180821;1262;43955;-85
2023/04/07 16:09:42;;;;;;;18.90;12.40;;;;;;;5.74;100.00;100376.08;180780;1262;43941;-87
2023/04/07 16:13:46;;;;;;;26.60;17.20;;;;;;;5.82;100.00;100378.08;180805;1261;43812;-85
2023/04/07 16:17:50;;;;;;;21.10;14.30;;;;;;;5.81;100.00;100380.38;180714;1261;44270;-87
2023/04/07 16:21:54;;;;;;;27.50;14.70;;;;;;;5.75;100.00;100378.11;180676;1262;60625;-86
2023/04/07 16:25:57;;;;;;;22.70;15.50;;;;;;;5.79;100.00;100381.57;180663;1261;44138;-86
2023/04/07 16:30:02;;;;;;;26.20;18.10;;;;;;;5.75;100.00;100385.52;180711;1261;44439;-88
2023/04/07 16:34:06;;;;;;;16.40;14.60;;;;;;;5.72;100.00;100390.13;180629;1261;44315;-88
2023/04/07 16:38:10;;;;;;;17.30;14.50;;;;;;;5.62;100.00;100386.33;180586;1261;43833;-87
2023/04/07 16:42:13;;;;;;;18.80;16.00;;;;;;;5.62;100.00;100388.58;180870;1261;59270;-89
2023/04/07 16:46:16;;;;;;;32.80;21.20;;;;;;;5.63;100.00;100393.10;180728;1262;43759;-88
2023/04/07 16:50:20;;;;;;;26.10;18.40;;;;;;;5.71;100.00;100395.81;180769;1262;43835;-87
2023/04/07 16:54:23;;;;;;;20.80;16.90;;;;;;;5.66;100.00;100398.92;180862;1262;43947;-84
2023/04/07 16:58:41;;;;;;;18.00;13.60;;;;;;;5.67;100.00;100396.87;181082;1262;43868;-89
2023/04/07 17:07:39;;;;;;;19.00;14.40;;;;;;;5.56;100.00;100398.42;180975;1265;43817;-89
2023/04/07 17:16:27;;;;;;;28.00;17.50;;;;;;;5.38;100.00;100392.96;148861;1259;44530;-90
2023/04/07 17:20:32;;;;;;;26.00;18.50;;;;;;;5.42;100.00;100394.65;180965;1262;43885;-90
2023/04/07 17:33:55;;;;;;;28.30;17.50;;;;;;;5.48;100.00;100406.08;174441;1260;44501;-86
2023/04/07 17:43:45;;;;;;;26.70;16.60;;;;;;;5.38;100.00;100412.65;181077;1267;43568;-73
2023/04/07 18:03:13;;;;;;;;;;;;;;;;;;;;;
2023/04/07 18:26:49;;;;;;;31.20;17.50;;;;;;;5.25;100.00;100437.30;179728;1260;89592;-71
2023/04/07 18:51:19;;;;;;;25.70;18.50;;;;;;;5.16;100.00;100443.46;181006;1264;45833;-90
2023/04/07 18:55:24;;;;;;;29.70;18.40;;;;;;;5.16;100.00;100442.75;180937;1261;45021;-89
2023/04/07 18:59:29;;;;;;;24.30;18.50;;;;;;;5.16;100.00;100442.08;180781;1262;57471;-88
2023/04/07 19:03:33;;;;;;;24.70;18.70;;;;;;;5.17;100.00;100446.02;180783;1262;43788;-86
2023/04/07 19:07:37;;;;;;;29.60;17.50;;;;;;;5.13;100.00;100441.52;180655;1262;44514;-87
2023/04/07 19:11:40;;;;;;;23.30;17.40;;;;;;;5.13;100.00;100438.36;180680;1264;44192;-87
2023/04/07 19:15:45;;;;;;;24.80;18.50;;;;;;;5.13;100.00;100439.79;180777;1262;44177;-87
2023/04/07 19:19:48;;;;;;;26.70;16.00;;;;;;;5.18;100.00;100439.66;180675;1262;59289;-86
2023/04/07 19:23:54;;;;;;;22.80;15.80;;;;;;;5.15;100.00;100441.75;180752;1262;45339;-87
2023/04/07 19:27:58;;;;;;;23.80;18.00;;;;;;;5.15;100.00;100443.01;180733;1262;43947;-87
2023/04/07 19:32:02;;;;;;;22.60;18.00;;;;;;;5.13;100.00;100438.36;180806;1262;44036;-86
2023/04/07 19:36:05;;;;;;;28.90;19.30;;;;;;;5.11;100.00;100441.06;180763;1262;43820;-87
2023/04/07 19:40:09;;;;;;;21.40;18.60;;;;;;;5.18;100.00;100437.92;180672;1262;58670;-88
2023/04/07 19:44:12;;;;;;;23.90;17.50;;;;;;;5.17;100.00;100438.67;180608;1262;43882;-87
2023/04/07 19:48:16;;;;;;;25.00;19.50;;;;;;;5.15;100.00;100437.17;180676;1262;43841;-87
2023/04/07 19:52:19;;;;;;;25.40;17.00;;;;;;;5.18;100.00;100437.69;180609;1263;43696;-86